Time;durP1;ratioP1;P1;durP2;ratioP2;P2;SDS_P1;SDS_P2;PMS_P1;PMS_P2;Temp;Humidity;BMP_temperature;BMP_pressure;BME280_temperature;BME280_humidity;BME280_pressure;Samples;Min_cycle;Max_cycle;Signal;HPM_P1;HPM_P2
2022/03/07 00:02:11;;;;;;;3.50;1.75;;;0.90;93.20;;;;;;5015188;28;20064;-49
2022/03/07 00:04:37;;;;;;;4.25;2.20;;;0.90;93.50;;;;;;5016799;28;20022;-48
2022/03/07 00:07:02;;;;;;;3.20;2.40;;;0.90;93.50;;;;;;5015014;28;20500;-48
2022/03/07 00:09:28;;;;;;;3.67;2.40;;;0.90;93.40;;;;;;5015922;28;20037;-49
2022/03/07 00:11:54;;;;;;;3.83;2.42;;;0.80;93.50;;;;;;5016133;28;20054;-49
2022/03/07 00:17:41;;;;;;;2.67;2.05;;;1.10;93.90;;;;;;5016259;28;20029;-52
2022/03/07 00:20:07;;;;;;;3.47;2.47;;;1.10;93.40;;;;;;5014815;28;20396;-49
2022/03/07 00:22:33;;;;;;;4.50;2.30;;;1.00;93.40;;;;;;5015988;28;20053;-51
2022/03/07 00:24:59;;;;;;;2.78;2.38;;;1.00;93.50;;;;;;5015817;28;20060;-51
2022/03/07 00:27:24;;;;;;;4.50;2.60;;;1.10;93.50;;;;;;5016002;28;20026;-52
2022/03/07 00:29:50;;;;;;;4.50;2.42;;;1.10;93.40;;;;;;5015851;28;20018;-52
2022/03/07 00:32:16;;;;;;;7.35;2.63;;;1.20;93.60;;;;;;5014655;28;20436;-51
2022/03/07 00:34:41;;;;;;;3.72;2.42;;;1.10;93.50;;;;;;5014668;28;20061;-50
2022/03/07 00:37:07;;;;;;;4.47;2.50;;;1.10;93.70;;;;;;5016047;28;20069;-50
2022/03/07 00:39:33;;;;;;;5.28;3.05;;;1.10;93.90;;;;;;5016347;28;20032;-51
2022/03/07 00:41:58;;;;;;;4.00;2.90;;;1.20;93.70;;;;;;5014752;28;20080;-49
2022/03/07 00:44:24;;;;;;;2.80;2.35;;;1.20;93.30;;;;;;5014803;28;20145;-49
2022/03/07 00:46:49;;;;;;;4.03;2.30;;;1.20;93.40;;;;;;5014368;28;20018;-48
2022/03/07 00:49:15;;;;;;;5.25;2.92;;;1.20;93.60;;;;;;5015881;28;20018;-51
2022/03/07 00:51:41;;;;;;;5.53;2.53;;;1.30;93.90;;;;;;5015833;28;20029;-48
2022/03/07 00:54:06;;;;;;;8.20;2.92;;;1.30;93.60;;;;;;5015436;28;20034;-48
2022/03/07 00:56:32;;;;;;;3.38;2.35;;;1.30;93.60;;;;;;5014492;28;20037;-48
2022/03/07 00:58:58;;;;;;;4.55;2.75;;;1.30;93.80;;;;;;5015954;28;20032;-50
2022/03/07 01:01:24;;;;;;;5.72;2.80;;;1.30;93.60;;;;;;5015086;28;20033;-48
2022/03/07 01:03:50;;;;;;;4.28;2.97;;;1.30;93.90;;;;;;5015258;28;20114;-49
2022/03/07 01:06:15;;;;;;;5.07;2.78;;;1.30;94.10;;;;;;5014246;28;20029;-49
2022/03/07 01:08:41;;;;;;;4.22;2.47;;;1.40;94.10;;;;;;5013275;28;20028;-48
2022/03/07 01:11:07;;;;;;;6.22;2.80;;;1.30;94.40;;;;;;5013964;28;20030;-48
2022/03/07 01:13:32;;;;;;;4.63;2.42;;;1.20;93.90;;;;;;5015378;28;20026;-50
2022/03/07 01:15:58;;;;;;;4.43;2.80;;;1.20;94.30;;;;;;5013812;28;20061;-48
2022/03/07 01:18:23;;;;;;;5.28;2.67;;;1.20;94.30;;;;;;5013759;28;20030;-51
2022/03/07 01:20:49;;;;;;;4.00;2.70;;;1.10;94.20;;;;;;5015192;28;20021;-49
2022/03/07 01:23:14;;;;;;;3.88;2.75;;;1.10;94.20;;;;;;5013646;28;20029;-48
2022/03/07 01:25:40;;;;;;;5.18;3.05;;;1.10;94.10;;;;;;5015033;28;20380;-50
2022/03/07 01:28:06;;;;;;;6.90;3.50;;;1.10;94.00;;;;;;5014811;28;20026;-50
2022/03/07 01:30:32;;;;;;;4.63;2.92;;;1.10;93.80;;;;;;5014640;28;20084;-49
2022/03/07 01:32:57;;;;;;;6.60;3.15;;;1.10;93.90;;;;;;5013506;28;20026;-50
2022/03/07 01:35:23;;;;;;;5.82;3.53;;;1.10;93.90;;;;;;5013517;28;20104;-50
2022/03/07 01:37:49;;;;;;;4.80;2.55;;;1.10;93.60;;;;;;5013781;28;20048;-49
2022/03/07 01:40:14;;;;;;;5.70;2.80;;;1.10;93.70;;;;;;5015089;28;20026;-48
2022/03/07 01:42:40;;;;;;;4.65;3.00;;;1.20;93.80;;;;;;5013351;28;20029;-49
2022/03/07 01:45:08;;;;;;;6.43;3.30;;;1.20;93.30;;;;;;5013293;28;20018;-53
2022/03/07 01:47:34;;;;;;;4.72;3.03;;;1.10;93.40;;;;;;5014730;28;20017;-48
2022/03/07 01:50:00;;;;;;;4.18;2.88;;;1.10;93.60;;;;;;5013231;28;20058;-50
2022/03/07 01:52:26;;;;;;;4.65;3.10;;;1.10;93.60;;;;;;5013774;28;20030;-50
2022/03/07 01:54:51;;;;;;;5.78;3.15;;;1.10;93.60;;;;;;5014239;28;20033;-53
2022/03/07 01:57:18;;;;;;;7.28;3.75;;;1.20;93.80;;;;;;5014361;28;20037;-49
2022/03/07 01:59:44;;;;;;;5.80;3.60;;;1.10;93.60;;;;;;5014624;28;20026;-49
2022/03/07 02:02:10;;;;;;;5.18;3.13;;;1.10;93.40;;;;;;5013783;28;20079;-49
2022/03/07 02:04:39;;;;;;;7.53;2.90;;;1.10;93.50;;;;;;5013005;28;20076;-50
2022/03/07 02:07:04;;;;;;;6.30;3.50;;;1.00;93.40;;;;;;5013280;28;20041;-50
2022/03/07 02:09:30;;;;;;;4.88;2.92;;;1.00;93.70;;;;;;5013191;28;20362;-50
2022/03/07 02:11:55;;;;;;;5.20;3.50;;;1.00;93.80;;;;;;5013955;28;20026;-50
2022/03/07 02:14:22;;;;;;;7.40;3.67;;;1.00;93.80;;;;;;5013982;28;20026;-48
2022/03/07 02:16:49;;;;;;;6.63;3.67;;;1.00;93.60;;;;;;5013092;28;20030;-50
2022/03/07 02:19:15;;;;;;;5.25;3.70;;;1.00;93.90;;;;;;5013146;28;20069;-50
2022/03/07 02:21:49;;;;;;;5.75;3.72;;;1.00;94.00;;;;;;5013979;28;20026;-48
2022/03/07 02:24:16;;;;;;;5.70;3.42;;;1.00;93.70;;;;;;5014260;28;20018;-50
2022/03/07 02:26:42;;;;;;;7.70;3.58;;;0.90;93.50;;;;;;5012875;28;20033;-52
2022/03/07 02:29:09;;;;;;;10.35;3.53;;;0.90;93.60;;;;;;5014156;28;20026;-48
2022/03/07 02:31:36;;;;;;;7.53;3.47;;;0.90;93.40;;;;;;5012496;28;20092;-48
2022/03/07 02:34:04;;;;;;;5.95;3.45;;;0.90;93.70;;;;;;5012570;28;20056;-51
2022/03/07 02:36:31;;;;;;;5.72;3.47;;;0.90;93.60;;;;;;5013760;28;20040;-48
2022/03/07 02:38:56;;;;;;;7.28;4.40;;;1.00;93.70;;;;;;5012720;28;20472;-49
2022/03/07 02:41:22;;;;;;;7.45;4.00;;;1.10;93.80;;;;;;5012752;28;20030;-49
2022/03/07 02:43:48;;;;;;;8.25;3.47;;;1.10;93.50;;;;;;5013693;28;20018;-49
2022/03/07 02:46:14;;;;;;;9.40;3.80;;;1.20;94.10;;;;;;5013651;28;20029;-49
2022/03/07 02:48:40;;;;;;;6.88;4.05;;;1.20;93.30;;;;;;5013904;28;20469;-48
2022/03/07 02:51:06;;;;;;;7.93;3.55;;;1.20;93.30;;;;;;5013854;28;20018;-50
2022/03/07 02:53:32;;;;;;;12.25;4.10;;;1.20;93.30;;;;;;5013211;28;20135;-49
2022/03/07 02:55:57;;;;;;;8.65;3.67;;;1.20;93.30;;;;;;5013280;28;20416;-52
2022/03/07 02:58:23;;;;;;;8.05;4.00;;;1.30;93.60;;;;;;5013797;28;20041;-49
2022/03/07 03:00:49;;;;;;;5.47;3.35;;;1.30;93.40;;;;;;5012264;28;20026;-50
2022/03/07 03:03:15;;;;;;;7.57;3.90;;;1.40;93.60;;;;;;5013381;28;20080;-51
2022/03/07 03:05:40;;;;;;;9.25;3.70;;;1.40;93.20;;;;;;5012476;28;20072;-52
2022/03/07 03:08:07;;;;;;;8.23;3.20;;;1.30;93.50;;;;;;5013665;28;20018;-53
2022/03/07 03:10:33;;;;;;;7.43;2.95;;;1.30;93.10;;;;;;5012361;28;20049;-50
2022/03/07 03:12:58;;;;;;;5.93;3.50;;;1.40;93.50;;;;;;5013463;28;20022;-48
2022/03/07 03:15:24;;;;;;;7.40;3.33;;;1.40;93.80;;;;;;5012090;28;20041;-50
2022/03/07 03:17:50;;;;;;;5.72;3.75;;;1.40;93.60;;;;;;5012069;28;20034;-48
2022/03/07 03:20:16;;;;;;;7.38;3.95;;;1.40;93.70;;;;;;5012131;28;20026;-49
2022/03/07 03:22:44;;;;;;;7.63;3.53;;;1.40;93.90;;;;;;5012505;28;20025;-49
2022/03/07 03:25:11;;;;;;;6.55;3.40;;;1.40;94.20;;;;;;5012074;28;20108;-49
2022/03/07 03:27:38;;;;;;;5.05;3.50;;;1.40;94.50;;;;;;5013489;28;20109;-52
2022/03/07 03:30:06;;;;;;;5.43;3.42;;;1.50;94.20;;;;;;5012715;28;20022;-49
2022/03/07 03:32:32;;;;;;;6.60;3.50;;;1.50;94.20;;;;;;5015888;28;20069;-48
2022/03/07 03:34:57;;;;;;;5.50;3.45;;;1.60;94.30;;;;;;5016972;28;20068;-49
2022/03/07 03:37:26;;;;;;;5.70;3.25;;;1.60;94.90;;;;;;5015654;28;20030;-49
2022/03/07 03:39:53;;;;;;;7.13;4.45;;;1.60;94.00;;;;;;5016968;28;20485;-48
2022/03/07 03:42:19;;;;;;;6.88;3.45;;;1.60;94.80;;;;;;5016814;28;20072;-49
2022/03/07 03:44:45;;;;;;;6.18;3.85;;;1.70;94.40;;;;;;5016726;28;20018;-50
2022/03/07 03:47:10;;;;;;;8.48;4.20;;;1.70;94.60;;;;;;5015814;28;20116;-49
2022/03/07 03:49:36;;;;;;;7.50;3.85;;;1.70;94.70;;;;;;5015748;28;20113;-48
2022/03/07 03:52:03;;;;;;;7.35;3.80;;;1.70;94.40;;;;;;5016677;28;20152;-50
2022/03/07 03:54:28;;;;;;;10.00;4.78;;;1.70;94.60;;;;;;5016978;28;20029;-49
2022/03/07 03:56:54;;;;;;;6.18;3.40;;;1.70;94.60;;;;;;5015241;28;20031;-50
2022/03/07 03:59:19;;;;;;;5.70;3.33;;;1.70;95.30;;;;;;5015340;28;20037;-49
2022/03/07 04:01:45;;;;;;;5.85;3.15;;;1.70;95.10;;;;;;5015165;28;20121;-49
2022/03/07 04:04:12;;;;;;;5.68;3.40;;;1.70;94.50;;;;;;5016497;28;20022;-48
2022/03/07 04:06:38;;;;;;;5.03;3.25;;;1.60;94.80;;;;;;5017005;28;20022;-49
2022/03/07 04:09:04;;;;;;;5.60;3.13;;;1.80;94.70;;;;;;5016387;28;20022;-49
2022/03/07 04:11:29;;;;;;;5.03;3.08;;;1.80;94.70;;;;;;5016418;28;20026;-49
2022/03/07 04:13:55;;;;;;;6.75;3.53;;;1.70;94.60;;;;;;5016322;28;20022;-50
2022/03/07 04:16:20;;;;;;;3.58;2.45;;;1.70;95.00;;;;;;5016697;28;20045;-51
2022/03/07 04:18:46;;;;;;;5.07;3.03;;;1.80;95.10;;;;;;5015290;28;20029;-52
2022/03/07 04:21:12;;;;;;;5.18;2.95;;;1.80;95.10;;;;;;5016181;28;20387;-50
2022/03/07 04:23:37;;;;;;;5.18;2.70;;;1.80;95.30;;;;;;5016292;28;20026;-51
2022/03/07 04:26:03;;;;;;;7.28;3.20;;;1.80;95.50;;;;;;5014654;28;20026;-51
2022/03/07 04:28:29;;;;;;;3.30;2.65;;;1.70;96.00;;;;;;5014868;28;20072;-50
2022/03/07 04:30:54;;;;;;;6.35;2.90;;;1.60;96.30;;;;;;5016037;28;20108;-51
2022/03/07 04:33:20;;;;;;;9.00;3.03;;;1.70;96.00;;;;;;5015051;28;20034;-50
2022/03/07 04:35:46;;;;;;;6.70;3.58;;;1.70;96.30;;;;;;5015902;28;20022;-51
2022/03/07 04:38:11;;;;;;;4.22;2.65;;;1.90;96.30;;;;;;5015918;28;20074;-51
2022/03/07 04:40:37;;;;;;;4.45;2.55;;;1.80;96.20;;;;;;5015822;28;20028;-53
2022/03/07 04:43:02;;;;;;;8.80;3.38;;;1.70;96.40;;;;;;5013367;28;20061;-51
2022/03/07 04:45:28;;;;;;;5.75;2.65;;;1.70;96.70;;;;;;5014345;28;20022;-52
2022/03/07 04:47:54;;;;;;;8.55;3.70;;;1.70;96.60;;;;;;5015964;28;20068;-51
2022/03/07 04:50:19;;;;;;;6.88;3.50;;;1.70;96.80;;;;;;5015682;28;20056;-52
2022/03/07 04:52:45;;;;;;;6.25;3.13;;;1.70;97.00;;;;;;5014327;28;20037;-51
2022/03/07 04:55:12;;;;;;;4.45;2.90;;;1.80;97.40;;;;;;5015440;28;20090;-52
2022/03/07 04:57:38;;;;;;;4.43;3.05;;;1.80;97.60;;;;;;5015450;28;20100;-51
2022/03/07 05:00:09;;;;;;;4.30;2.58;;;1.80;98.00;;;;;;5015694;28;20018;-55
2022/03/07 05:02:35;;;;;;;4.43;2.40;;;1.80;97.80;;;;;;5014441;28;20025;-51
2022/03/07 05:05:00;;;;;;;4.50;2.55;;;1.80;98.10;;;;;;5014032;28;20388;-54
2022/03/07 05:07:26;;;;;;;6.82;2.75;;;1.90;97.40;;;;;;5014065;28;20061;-52
2022/03/07 05:09:52;;;;;;;5.45;2.75;;;1.80;97.00;;;;;;5015460;28;20385;-57
2022/03/07 05:12:17;;;;;;;3.80;2.40;;;1.80;97.10;;;;;;5014949;28;20018;-52
2022/03/07 05:14:43;;;;;;;4.20;2.35;;;1.80;97.60;;;;;;5014182;28;20030;-53
2022/03/07 05:17:09;;;;;;;5.50;2.80;;;1.80;97.40;;;;;;5013867;28;20021;-53
2022/03/07 05:19:34;;;;;;;6.35;2.20;;;1.80;97.50;;;;;;5014121;28;20037;-54
2022/03/07 05:22:00;;;;;;;2.80;2.30;;;1.80;97.70;;;;;;5014892;28;20026;-55
2022/03/07 05:24:26;;;;;;;11.88;3.00;;;1.80;97.30;;;;;;5014953;28;20018;-56
2022/03/07 05:26:52;;;;;;;4.00;2.55;;;1.90;97.30;;;;;;5014820;28;20026;-58
2022/03/07 05:29:18;;;;;;;5.45;2.38;;;1.90;97.10;;;;;;5014887;28;20502;-52
2022/03/07 05:31:44;;;;;;;4.80;2.50;;;1.80;97.70;;;;;;5014659;28;20034;-55
2022/03/07 05:34:09;;;;;;;4.70;2.70;;;1.80;97.80;;;;;;5014996;28;20028;-56
2022/03/07 05:36:35;;;;;;;4.07;2.85;;;1.80;97.70;;;;;;5013903;28;20022;-57
2022/03/07 05:39:02;;;;;;;6.75;2.63;;;1.80;97.60;;;;;;5013451;28;20061;-57
2022/03/07 05:41:28;;;;;;;3.58;2.40;;;1.80;98.60;;;;;;5013334;28;20080;-57
2022/03/07 05:43:54;;;;;;;4.05;2.38;;;1.80;97.90;;;;;;5014850;28;20033;-58
2022/03/07 05:46:19;;;;;;;6.93;2.85;;;1.80;98.70;;;;;;5013257;28;20020;-56
2022/03/07 05:48:45;;;;;;;9.20;2.88;;;1.90;98.80;;;;;;5014863;28;20465;-56
2022/03/07 05:51:11;;;;;;;6.75;2.63;;;1.80;99.40;;;;;;5013318;28;20025;-53
2022/03/07 05:53:37;;;;;;;5.47;2.90;;;1.80;99.90;;;;;;5014448;28;20501;-52
2022/03/07 05:56:03;;;;;;;5.32;2.67;;;1.90;99.20;;;;;;5012873;28;20021;-57
2022/03/07 05:58:29;;;;;;;3.05;2.70;;;1.80;99.00;;;;;;5013414;28;20032;-55
2022/03/07 06:00:55;;;;;;;4.13;3.10;;;1.80;99.00;;;;;;5014626;28;20392;-53
2022/03/07 06:03:21;;;;;;;3.83;2.40;;;1.80;99.40;;;;;;5013410;28;20026;-51
2022/03/07 06:05:47;;;;;;;3.50;2.50;;;1.80;99.80;;;;;;5013379;28;20429;-54
2022/03/07 06:08:12;;;;;;;6.25;2.50;;;1.80;99.90;;;;;;5013054;28;20025;-53
2022/03/07 06:10:38;;;;;;;5.18;2.47;;;1.80;99.70;;;;;;5014476;28;20032;-57
2022/03/07 06:13:03;;;;;;;5.35;2.88;;;2.00;99.90;;;;;;5013721;28;20144;-57
2022/03/07 06:15:29;;;;;;;3.50;2.33;;;2.00;99.90;;;;;;5014258;28;20026;-58
2022/03/07 06:18:00;;;;;;;6.20;3.28;;;2.00;99.70;;;;;;5013066;28;20048;-51
2022/03/07 06:20:27;;;;;;;4.10;2.78;;;1.90;99.80;;;;;;5012851;28;20026;-57
2022/03/07 06:22:54;;;;;;;4.45;2.70;;;1.90;99.90;;;;;;5014211;28;20476;-56
2022/03/07 06:25:20;;;;;;;4.03;2.58;;;1.90;99.70;;;;;;5012997;28;20026;-54
2022/03/07 06:27:46;;;;;;;4.93;3.10;;;2.10;99.90;;;;;;5012592;28;20030;-57
2022/03/07 06:30:12;;;;;;;3.85;2.50;;;2.10;99.80;;;;;;5012633;28;20030;-58
2022/03/07 06:32:38;;;;;;;6.15;2.83;;;2.20;99.90;;;;;;5013862;28;20037;-57
2022/03/07 06:35:04;;;;;;;7.80;2.45;;;2.10;99.90;;;;;;5013843;28;20049;-58
2022/03/07 06:37:30;;;;;;;4.32;2.70;;;2.30;99.90;;;;;;5013731;28;20018;-58
2022/03/07 06:39:56;;;;;;;4.88;2.67;;;2.20;99.90;;;;;;5012583;28;20057;-52
2022/03/07 06:42:22;;;;;;;5.65;2.58;;;2.30;99.90;;;;;;5012451;28;20022;-52
2022/03/07 06:44:47;;;;;;;7.10;2.78;;;2.30;99.90;;;;;;5012567;28;20021;-52
2022/03/07 06:47:13;;;;;;;3.53;2.25;;;2.30;99.90;;;;;;5013708;28;20037;-54
2022/03/07 06:49:40;;;;;;;7.68;2.78;;;2.30;99.90;;;;;;5014213;28;20018;-52
2022/03/07 06:52:06;;;;;;;3.03;2.33;;;2.40;99.90;;;;;;5012735;28;20028;-55
2022/03/07 06:54:32;;;;;;;4.32;2.30;;;2.30;99.90;;;;;;5012650;28;20058;-50
2022/03/07 06:56:58;;;;;;;5.40;2.30;;;2.30;99.90;;;;;;5012642;28;20034;-54
2022/03/07 06:59:24;;;;;;;4.78;3.85;;;2.30;99.90;;;;;;5012375;28;20489;-50
2022/03/07 07:01:51;;;;;;;3.53;2.67;;;2.30;99.90;;;;;;5013979;28;20030;-52
2022/03/07 07:04:17;;;;;;;3.35;2.40;;;2.40;99.90;;;;;;5012242;28;20049;-52
2022/03/07 07:06:43;;;;;;;5.18;2.22;;;2.40;99.90;;;;;;5013222;28;20045;-56
2022/03/07 07:09:55;;;;;;;4.28;2.65;;;2.50;99.90;;;;;;5017411;28;20482;-50
2022/03/07 07:12:20;;;;;;;4.57;2.28;;;2.50;99.90;;;;;;5017731;28;20029;-50
2022/03/07 07:14:46;;;;;;;5.80;2.63;;;2.40;99.90;;;;;;5016149;28;20030;-54
2022/03/07 07:17:12;;;;;;;4.00;2.40;;;2.40;99.90;;;;;;5017393;28;20172;-53
2022/03/07 07:19:38;;;;;;;4.30;2.45;;;2.40;99.90;;;;;;5016121;28;20030;-51
2022/03/07 07:22:03;;;;;;;4.00;2.15;;;2.50;99.90;;;;;;5015982;28;20026;-51
2022/03/07 07:24:29;;;;;;;4.57;2.33;;;2.40;99.90;;;;;;5015997;28;20030;-50
2022/03/07 07:26:55;;;;;;;8.45;2.80;;;2.40;99.90;;;;;;5016249;28;20026;-51
2022/03/07 07:29:20;;;;;;;3.67;2.17;;;2.50;99.90;;;;;;5016847;28;20022;-53
2022/03/07 07:31:47;;;;;;;5.15;2.58;;;2.60;99.90;;;;;;5015750;28;20485;-49
2022/03/07 07:34:13;;;;;;;10.70;2.45;;;2.40;99.90;;;;;;5015877;28;20049;-54
2022/03/07 07:36:39;;;;;;;8.68;3.30;;;2.40;99.90;;;;;;5017264;28;20022;-49
2022/03/07 07:39:05;;;;;;;6.03;2.58;;;2.40;99.90;;;;;;5016903;28;20085;-49
2022/03/07 07:41:30;;;;;;;5.43;2.53;;;2.60;99.90;;;;;;5016419;28;20071;-50
2022/03/07 07:43:56;;;;;;;3.05;2.40;;;2.60;99.90;;;;;;5015647;28;20397;-54
2022/03/07 07:46:22;;;;;;;6.88;2.50;;;2.70;99.90;;;;;;5016909;28;20153;-53
2022/03/07 07:48:47;;;;;;;6.53;3.38;;;2.70;99.90;;;;;;5015610;28;20022;-54
2022/03/07 07:51:13;;;;;;;4.28;2.53;;;2.80;99.90;;;;;;5017626;28;20030;-53
2022/03/07 07:53:38;;;;;;;7.10;3.28;;;2.80;99.90;;;;;;5017079;28;20084;-49
2022/03/07 07:56:04;;;;;;;8.05;3.42;;;2.90;99.90;;;;;;5016594;28;20438;-53
2022/03/07 07:58:30;;;;;;;7.63;2.72;;;3.00;99.90;;;;;;5016645;28;20022;-52
2022/03/07 08:00:56;;;;;;;5.80;3.30;;;3.10;99.90;;;;;;5015340;28;20069;-51
2022/03/07 08:03:23;;;;;;;6.43;2.67;;;3.20;99.90;;;;;;5017078;28;20034;-52
2022/03/07 08:05:48;;;;;;;5.97;2.90;;;3.30;99.90;;;;;;5016409;28;20076;-51
2022/03/07 08:08:18;;;;;;;5.15;2.67;;;3.40;99.80;;;;;;5015876;28;20021;-50
2022/03/07 08:10:44;;;;;;;4.30;2.63;;;3.40;99.90;;;;;;5016352;28;20029;-49
2022/03/07 08:13:10;;;;;;;5.90;2.80;;;3.50;99.70;;;;;;5015417;28;20026;-49
2022/03/07 08:15:36;;;;;;;3.72;2.70;;;3.50;99.30;;;;;;5015731;28;20049;-49
2022/03/07 08:18:02;;;;;;;5.35;2.17;;;3.50;99.00;;;;;;5016330;28;20030;-49
2022/03/07 08:20:27;;;;;;;7.05;2.60;;;3.30;99.80;;;;;;5014967;28;20034;-49
2022/03/07 08:22:53;;;;;;;4.65;2.53;;;3.40;99.20;;;;;;5016041;28;20030;-49
2022/03/07 08:25:20;;;;;;;4.70;3.05;;;3.40;99.00;;;;;;5014823;28;20072;-52
2022/03/07 08:27:46;;;;;;;5.78;3.22;;;3.30;99.30;;;;;;5016394;28;20096;-50
2022/03/07 08:30:14;;;;;;;2.95;2.28;;;3.30;99.10;;;;;;5015081;28;20029;-49
2022/03/07 08:32:43;;;;;;;5.38;2.75;;;3.30;99.00;;;;;;5014852;28;20124;-51
2022/03/07 08:35:10;;;;;;;4.22;2.88;;;3.20;99.20;;;;;;5015953;28;20030;-53
2022/03/07 08:37:37;;;;;;;4.43;2.80;;;3.10;99.20;;;;;;5015803;28;20022;-51
2022/03/07 08:40:07;;;;;;;7.63;2.90;;;3.10;99.20;;;;;;5015832;28;20057;-49
2022/03/07 08:42:33;;;;;;;3.40;2.50;;;3.20;99.70;;;;;;5015739;28;20108;-50
2022/03/07 08:44:59;;;;;;;4.68;2.70;;;3.20;99.00;;;;;;5015710;28;20049;-49
2022/03/07 08:47:25;;;;;;;4.07;2.97;;;3.30;98.80;;;;;;5014738;28;20053;-52
2022/03/07 08:49:50;;;;;;;4.35;2.80;;;3.30;98.20;;;;;;5015644;28;20030;-50
2022/03/07 08:52:16;;;;;;;9.27;3.13;;;3.20;98.10;;;;;;5016120;28;20034;-49
2022/03/07 08:54:48;;;;;;;4.05;2.58;;;3.20;98.20;;;;;;5014293;28;20029;-50
2022/03/07 08:57:14;;;;;;;4.38;3.22;;;3.30;98.10;;;;;;5014227;28;20026;-51
2022/03/07 08:59:40;;;;;;;3.47;2.45;;;3.40;98.00;;;;;;5015506;28;20388;-50
2022/03/07 09:02:07;;;;;;;6.20;2.72;;;3.50;98.20;;;;;;5015332;28;20056;-50
2022/03/07 09:04:32;;;;;;;5.07;3.50;;;3.80;97.70;;;;;;5015404;28;20161;-52
2022/03/07 09:06:58;;;;;;;4.13;2.83;;;4.40;97.70;;;;;;5014090;28;20085;-54
2022/03/07 09:09:24;;;;;;;5.25;3.05;;;5.60;95.50;;;;;;5014077;28;20018;-49
2022/03/07 09:11:49;;;;;;;4.43;2.60;;;6.00;94.10;;;;;;5014009;28;20024;-50
2022/03/07 09:14:15;;;;;;;4.88;3.08;;;6.30;94.00;;;;;;5014063;28;20475;-51
2022/03/07 09:16:42;;;;;;;5.05;2.70;;;6.70;92.90;;;;;;5015129;28;20109;-53
2022/03/07 09:19:08;;;;;;;3.78;3.05;;;7.10;91.40;;;;;;5015131;28;20108;-53
2022/03/07 09:21:34;;;;;;;4.15;2.85;;;6.80;91.50;;;;;;5013833;28;20022;-51
2022/03/07 09:24:00;;;;;;;3.58;2.65;;;7.50;90.70;;;;;;5013843;28;20018;-54
2022/03/07 09:26:26;;;;;;;6.38;3.20;;;8.40;88.50;;;;;;5013924;28;20028;-50
2022/03/07 09:28:52;;;;;;;4.60;3.13;;;8.90;85.60;;;;;;5014118;28;20034;-52
2022/03/07 09:31:17;;;;;;;9.93;2.88;;;10.10;83.50;;;;;;5014712;28;20054;-50
2022/03/07 09:33:43;;;;;;;7.45;3.58;;;11.10;80.50;;;;;;5014914;28;20062;-48
2022/03/07 09:36:09;;;;;;;4.35;3.33;;;12.10;75.80;;;;;;5013382;28;20026;-49
2022/03/07 09:38:36;;;;;;;3.95;3.13;;;12.20;71.50;;;;;;5014726;28;20030;-52
2022/03/07 09:41:03;;;;;;;8.52;3.88;;;11.80;71.40;;;;;;5014724;28;20109;-51
2022/03/07 09:43:28;;;;;;;5.40;3.55;;;11.10;72.40;;;;;;5014737;28;20094;-53
2022/03/07 09:45:54;;;;;;;5.25;3.42;;;11.40;72.30;;;;;;5013357;28;20496;-54
2022/03/07 09:48:22;;;;;;;8.10;3.65;;;11.10;71.40;;;;;;5013620;28;20025;-52
2022/03/07 09:50:48;;;;;;;3.95;3.42;;;10.50;72.30;;;;;;5014212;28;20018;-55
2022/03/07 09:53:16;;;;;;;7.75;4.07;;;9.90;72.20;;;;;;5014672;28;20026;-47
2022/03/07 09:55:42;;;;;;;5.47;3.47;;;9.60;73.70;;;;;;5013152;28;20030;-49
2022/03/07 09:58:08;;;;;;;5.45;3.88;;;8.40;74.60;;;;;;5014443;28;20026;-53
2022/03/07 10:00:34;;;;;;;5.25;3.60;;;7.20;77.60;;;;;;5013110;28;20032;-47
2022/03/07 10:03:05;;;;;;;5.32;3.50;;;6.50;80.00;;;;;;5014594;28;20026;-47
2022/03/07 10:05:37;;;;;;;5.22;3.70;;;6.10;81.30;;;;;;5013045;28;20033;-48
2022/03/07 10:08:04;;;;;;;6.40;4.28;;;6.10;82.70;;;;;;5014659;28;20026;-47
2022/03/07 10:10:50;;;;;;;9.55;4.53;;;5.90;82.70;;;;;;5013444;28;20018;-49
2022/03/07 10:13:16;;;;;;;9.90;4.22;;;5.80;83.50;;;;;;5012884;28;20034;-48
2022/03/07 10:15:42;;;;;;;7.10;4.25;;;6.00;83.40;;;;;;5013228;28;20117;-46
2022/03/07 10:18:16;;;;;;;6.70;4.10;;;6.40;83.40;;;;;;5014097;28;20029;-46
2022/03/07 10:20:49;;;;;;;5.72;3.92;;;6.80;82.40;;;;;;5014424;28;20036;-49
2022/03/07 10:23:15;;;;;;;6.28;4.30;;;7.20;82.20;;;;;;5012965;28;20022;-46
2022/03/07 10:25:45;;;;;;;3.97;3.55;;;7.40;82.00;;;;;;5014503;28;20057;-46
2022/03/07 10:28:12;;;;;;;4.63;3.50;;;7.40;81.60;;;;;;5012839;28;20025;-46
2022/03/07 10:30:38;;;;;;;3.80;2.75;;;7.20;80.70;;;;;;5012725;28;20033;-47
2022/03/07 10:33:13;;;;;;;4.85;3.17;;;7.10;82.40;;;;;;5013844;28;20034;-47
2022/03/07 10:35:48;;;;;;;11.40;3.25;;;6.70;82.80;;;;;;5014245;28;20029;-48
2022/03/07 10:38:20;;;;;;;5.30;3.47;;;6.70;83.70;;;;;;5012815;28;20026;-51
2022/03/07 10:40:48;;;;;;;;;;;6.40;83.70;;;;;;5013642;28;20046;-46
2022/03/07 10:43:14;;;;;;;6.00;3.70;;;6.50;84.10;;;;;;5012507;28;19909;-46
2022/03/07 10:45:44;;;;;;;4.65;3.60;;;6.20;85.10;;;;;;5013892;28;20032;-52
2022/03/07 10:48:10;;;;;;;5.18;3.40;;;6.20;84.00;;;;;;5013592;28;20025;-47
2022/03/07 10:50:35;;;;;;;5.07;3.88;;;6.20;85.70;;;;;;5013672;28;20022;-47
2022/03/07 10:53:04;;;;;;;5.60;4.10;;;6.10;83.50;;;;;;5013465;28;20030;-47
2022/03/07 10:55:31;;;;;;;6.70;3.63;;;6.00;83.80;;;;;;5013119;28;20022;-46
2022/03/07 10:58:11;;;;;;;5.97;4.10;;;5.70;85.10;;;;;;5013150;28;20028;-51
2022/03/07 11:01:06;;;;;;;6.57;3.80;;;5.50;85.70;;;;;;5013541;28;20022;-49
2022/03/07 11:03:34;;;;;;;5.10;3.17;;;5.60;85.80;;;;;;4995974;28;20070;-50
2022/03/07 11:06:01;;;;;;;7.25;3.67;;;5.60;87.00;;;;;;5013638;28;20049;-54
2022/03/07 11:08:28;;;;;;;6.95;3.83;;;5.80;87.70;;;;;;5012482;28;20141;-50
2022/03/07 11:10:56;;;;;;;9.00;4.63;;;5.70;84.20;;;;;;5013029;28;20076;-47
2022/03/07 11:13:30;;;;;;;8.77;4.50;;;5.50;85.00;;;;;;5013774;28;20566;-52
2022/03/07 11:16:01;;;;;;;5.00;3.55;;;5.20;85.60;;;;;;5012166;28;20029;-55
2022/03/07 11:18:27;;;;;;;5.90;4.28;;;4.90;85.90;;;;;;5012328;28;20116;-52
2022/03/07 11:20:55;;;;;;;5.13;3.70;;;4.80;86.30;;;;;;5012600;28;20116;-50
2022/03/07 11:23:21;;;;;;;5.88;3.97;;;4.70;86.50;;;;;;5013621;28;20026;-47
2022/03/07 11:25:52;;;;;;;6.38;3.42;;;4.80;87.70;;;;;;5012307;28;20053;-48
2022/03/07 11:28:18;;;;;;;10.68;3.97;;;4.70;87.80;;;;;;5013337;28;20022;-50
2022/03/07 11:30:44;;;;;;;4.88;3.83;;;4.80;87.40;;;;;;5013050;28;20030;-50
2022/03/07 11:33:29;;;;;;;6.43;4.10;;;4.90;87.40;;;;;;5013427;28;20100;-51
2022/03/07 11:35:55;;;;;;;7.05;4.00;;;5.00;88.00;;;;;;5013192;28;20085;-53
2022/03/07 11:38:32;;;;;;;7.07;4.63;;;5.20;87.70;;;;;;5013056;28;20064;-50
2022/03/07 11:41:01;;;;;;;8.38;5.35;;;5.20;86.90;;;;;;5011882;28;20025;-48
2022/03/07 11:43:29;;;;;;;7.45;4.68;;;5.20;87.80;;;;;;5013303;28;20026;-46
2022/03/07 11:45:56;;;;;;;8.10;5.10;;;5.20;89.30;;;;;;5012062;28;20488;-50
2022/03/07 11:48:22;;;;;;;6.75;4.35;;;5.20;88.20;;;;;;5013275;28;20025;-48
2022/03/07 11:50:48;;;;;;;6.88;4.80;;;5.20;87.40;;;;;;5013061;28;20033;-48
2022/03/07 11:53:15;;;;;;;7.15;4.82;;;5.30;86.90;;;;;;5013521;28;20021;-48
2022/03/07 11:55:46;;;;;;;7.43;4.47;;;5.20;87.70;;;;;;5015356;28;20026;-48
2022/03/07 11:58:12;;;;;;;9.25;4.93;;;5.20;86.70;;;;;;5016717;28;20032;-47
2022/03/07 12:00:38;;;;;;;7.35;4.82;;;5.20;87.40;;;;;;5015308;28;20030;-46
2022/03/07 12:03:15;;;;;;;12.30;5.43;;;5.20;86.70;;;;;;5016429;28;20029;-50
2022/03/07 12:05:42;;;;;;;10.20;4.93;;;5.00;87.30;;;;;;5016569;28;20014;-48
2022/03/07 12:08:13;;;;;;;8.10;4.40;;;5.00;87.90;;;;;;5016455;28;20096;-46
2022/03/07 12:10:52;;;;;;;6.15;4.32;;;4.90;87.80;;;;;;5016446;28;20021;-46
2022/03/07 12:13:18;;;;;;;10.60;5.05;;;5.00;87.90;;;;;;5016444;28;20026;-48
2022/03/07 12:15:52;;;;;;;8.88;5.18;;;4.90;88.90;;;;;;5016181;28;20037;-48
2022/03/07 12:18:19;;;;;;;8.82;4.20;;;4.80;88.20;;;;;;5016310;28;20026;-52
2022/03/07 12:20:58;;;;;;;8.85;5.22;;;4.90;89.50;;;;;;5016262;28;20062;-52
2022/03/07 12:23:26;;;;;;;6.68;4.43;;;5.00;89.20;;;;;;5016041;28;20109;-49
2022/03/07 12:29:16;;;;;;;7.75;4.90;;;5.00;89.90;;;;;;5016450;28;20028;-51
2022/03/07 12:31:50;;;;;;;8.50;4.70;;;5.00;89.10;;;;;;5015313;28;20061;-50
2022/03/07 12:34:27;;;;;;;7.40;5.00;;;5.20;88.60;;;;;;5016245;28;20029;-48
2022/03/07 12:37:10;;;;;;;6.68;4.70;;;5.20;87.80;;;;;;5014728;28;20022;-48
2022/03/07 12:39:54;;;;;;;9.15;4.95;;;5.20;87.40;;;;;;5014649;28;20026;-48
2022/03/07 12:42:26;;;;;;;7.30;4.93;;;5.30;89.70;;;;;;5014655;28;20029;-48
2022/03/07 12:44:52;;;;;;;8.55;4.95;;;5.50;88.40;;;;;;5015733;28;20037;-47
2022/03/07 12:47:25;;;;;;;10.38;5.25;;;5.40;87.40;;;;;;5015658;28;20476;-47
2022/03/07 12:49:51;;;;;;;7.15;4.97;;;5.40;87.50;;;;;;5015250;28;20050;-51
2022/03/07 12:52:34;;;;;;;7.65;4.88;;;5.40;88.10;;;;;;5014387;28;20041;-52
2022/03/07 12:55:05;;;;;;;7.82;5.03;;;5.40;88.30;;;;;;5015563;28;20053;-54
2022/03/07 12:57:31;;;;;;;7.85;5.15;;;5.60;88.30;;;;;;5015701;28;20026;-50
2022/03/07 13:00:08;;;;;;;7.90;5.13;;;5.50;87.50;;;;;;5015449;28;20105;-47
2022/03/07 13:02:39;;;;;;;7.95;4.97;;;5.60;87.60;;;;;;5015402;28;20033;-48
2022/03/07 13:05:08;;;;;;;7.50;4.78;;;5.60;87.00;;;;;;5014610;28;20026;-49